createdAt,value
2017-08-06T00:00:39.801Z,0
2017-08-06T00:01:39.794Z,0
2017-08-06T00:02:39.795Z,0
2017-08-06T00:03:39.798Z,0
2017-08-06T00:04:39.803Z,0
2017-08-06T00:05:39.888Z,0
2017-08-06T00:06:39.893Z,0
2017-08-06T00:07:39.787Z,0
2017-08-06T00:08:39.487Z,0
2017-08-06T00:09:39.692Z,0
2017-08-06T00:10:39.890Z,0
2017-08-06T00:11:39.894Z,0
2017-08-06T00:12:39.887Z,0
2017-08-06T00:13:39.790Z,0
2017-08-06T00:14:40.038Z,0
2017-08-06T00:15:39.576Z,0
2017-08-06T00:16:39.780Z,0
2017-08-06T00:17:39.780Z,0
2017-08-06T00:18:39.792Z,0
2017-08-06T00:19:39.779Z,0
2017-08-06T00:20:39.797Z,0
2017-08-06T00:21:39.976Z,0
2017-08-06T00:22:39.875Z,0
2017-08-06T00:23:39.770Z,0
2017-08-06T00:24:39.471Z,0
2017-08-06T00:25:39.774Z,0
2017-08-06T00:26:39.924Z,0
2017-08-06T00:27:40.024Z,0
2017-08-06T00:28:39.777Z,0
2017-08-06T00:29:39.775Z,0
2017-08-06T00:30:39.776Z,0
2017-08-06T00:31:39.872Z,0
2017-08-06T00:32:39.769Z,0
2017-08-06T00:33:39.766Z,0
2017-08-06T00:34:39.761Z,0
2017-08-06T00:35:39.768Z,0
2017-08-06T00:36:39.761Z,0
2017-08-06T00:37:39.564Z,0
2017-08-06T00:38:39.759Z,0
2017-08-06T00:39:39.449Z,0
2017-08-06T00:40:39.565Z,0
2017-08-06T00:41:39.765Z,0
2017-08-06T00:42:39.772Z,0
2017-08-06T00:43:39.902Z,0
2017-08-06T00:44:39.447Z,0
2017-08-06T00:45:39.861Z,0
2017-08-06T00:46:39.903Z,0
2017-08-06T00:47:39.141Z,0
2017-08-06T00:48:39.901Z,0
2017-08-06T00:49:39.447Z,0
2017-08-06T00:50:39.541Z,0
2017-08-06T00:51:39.752Z,0
2017-08-06T00:52:39.743Z,0
2017-08-06T00:53:39.563Z,0
2017-08-06T00:54:39.747Z,0
2017-08-06T00:55:39.745Z,0
2017-08-06T00:56:39.597Z,0
2017-08-06T00:57:39.841Z,0
2017-08-06T00:58:40.110Z,0
2017-08-06T00:59:39.941Z,0
2017-08-06T01:00:39.125Z,0
2017-08-06T01:01:39.937Z,0
2017-08-06T01:02:39.739Z,0
2017-08-06T01:03:39.425Z,0
2017-08-06T01:04:39.739Z,0
2017-08-06T01:05:39.734Z,0
2017-08-06T01:06:39.433Z,0
2017-08-06T01:07:40.233Z,0
2017-08-06T01:08:39.733Z,0
2017-08-06T01:09:39.726Z,0
2017-08-06T01:10:39.734Z,0
2017-08-06T01:11:39.931Z,0
2017-08-06T01:12:39.724Z,0
2017-08-06T01:13:39.418Z,0
2017-08-06T01:14:39.718Z,0
2017-08-06T01:15:39.926Z,0
2017-08-06T01:16:39.823Z,0
2017-08-06T01:17:39.569Z,0
2017-08-06T01:18:39.722Z,0
2017-08-06T01:19:39.721Z,0
2017-08-06T01:20:39.822Z,0
2017-08-06T01:21:39.413Z,0
2017-08-06T01:22:39.540Z,0
2017-08-06T01:23:39.411Z,0
2017-08-06T01:24:39.718Z,0
2017-08-06T01:25:39.812Z,0
2017-08-06T01:26:39.863Z,0
2017-08-06T01:27:39.713Z,0
2017-08-06T01:28:39.718Z,0
2017-08-06T01:29:39.714Z,0
2017-08-06T01:30:39.807Z,0
2017-08-06T01:31:39.705Z,0
2017-08-06T01:32:39.704Z,0
2017-08-06T01:33:39.701Z,0
2017-08-06T01:34:39.705Z,0
2017-08-06T01:35:39.803Z,0
2017-08-06T01:36:39.400Z,0
2017-08-06T01:37:39.698Z,0
2017-08-06T01:38:39.704Z,0
2017-08-06T01:39:39.711Z,0
2017-08-06T01:40:39.721Z,0
2017-08-06T01:41:39.403Z,0
2017-08-06T01:42:39.701Z,0
2017-08-06T01:43:39.691Z,0
2017-08-06T01:44:39.693Z,0
2017-08-06T01:45:39.385Z,0
2017-08-06T01:46:39.890Z,0
2017-08-06T01:47:39.072Z,0
2017-08-06T01:48:39.400Z,0
2017-08-06T01:49:39.677Z,0
2017-08-06T01:50:39.692Z,0
2017-08-06T01:51:39.783Z,0
2017-08-06T01:52:39.883Z,0
2017-08-06T01:53:39.831Z,0
2017-08-06T01:54:39.782Z,0
2017-08-06T01:55:39.681Z,0
2017-08-06T01:56:39.674Z,0
2017-08-06T01:57:39.677Z,0
2017-08-06T01:58:39.468Z,0
2017-08-06T01:59:39.785Z,0
2017-08-06T02:00:39.675Z,0
2017-08-06T02:01:39.674Z,0
2017-08-06T02:02:39.465Z,0
2017-08-06T02:03:39.562Z,0
2017-08-06T02:04:39.461Z,0
2017-08-06T02:05:39.363Z,0
2017-08-06T02:06:39.762Z,0
2017-08-06T02:07:39.669Z,0
2017-08-06T02:08:39.704Z,0
2017-08-06T02:09:39.865Z,0
2017-08-06T02:10:39.354Z,0
2017-08-06T02:11:39.048Z,0
2017-08-06T02:12:39.668Z,0
2017-08-06T02:13:39.758Z,0
2017-08-06T02:14:39.807Z,0
2017-08-06T02:15:39.653Z,0
2017-08-06T02:16:39.661Z,0
2017-08-06T02:17:39.648Z,0
2017-08-06T02:18:39.802Z,0
2017-08-06T02:19:39.745Z,0
2017-08-06T02:20:39.653Z,0
2017-08-06T02:21:39.748Z,0
2017-08-06T02:22:39.648Z,0
2017-08-06T02:23:39.349Z,0
2017-08-06T02:24:39.639Z,0
2017-08-06T02:25:39.131Z,0
2017-08-06T02:26:39.338Z,0
2017-08-06T02:27:39.743Z,0
2017-08-06T02:28:39.645Z,0
2017-08-06T02:29:39.029Z,0
2017-08-06T02:30:39.842Z,0
2017-08-06T02:31:39.630Z,0
2017-08-06T02:32:39.735Z,0
2017-08-06T02:33:39.736Z,0
2017-08-06T02:34:39.730Z,0
2017-08-06T02:35:39.334Z,0
2017-08-06T02:36:39.781Z,0
2017-08-06T02:37:39.638Z,0
2017-08-06T02:38:39.725Z,0
2017-08-06T02:39:39.722Z,0
2017-08-06T02:40:39.625Z,0
2017-08-06T02:41:39.563Z,0
2017-08-06T02:42:39.627Z,0
2017-08-06T02:43:39.723Z,0
2017-08-06T02:44:39.635Z,0
2017-08-06T02:45:39.721Z,0
2017-08-06T02:46:39.717Z,0
2017-08-06T02:47:39.771Z,0
2017-08-06T02:48:39.311Z,0
2017-08-06T02:49:39.617Z,0
2017-08-06T02:50:39.736Z,0
2017-08-06T02:51:39.604Z,0
2017-08-06T02:52:39.611Z,0
2017-08-06T02:53:39.403Z,0
2017-08-06T02:54:39.625Z,0
2017-08-06T02:55:39.809Z,0
2017-08-06T02:56:39.599Z,0
2017-08-06T02:57:39.709Z,0
2017-08-06T02:58:39.699Z,0
2017-08-06T02:59:39.591Z,0
2017-08-06T03:00:39.594Z,0
2017-08-06T03:01:39.794Z,0
2017-08-06T03:02:39.289Z,0
2017-08-06T03:03:39.596Z,0
2017-08-06T03:04:39.290Z,0
2017-08-06T03:05:39.278Z,0
2017-08-06T03:06:39.283Z,0
2017-08-06T03:07:39.689Z,0
2017-08-06T03:08:39.681Z,0
2017-08-06T03:09:39.597Z,0
2017-08-06T03:10:39.586Z,0
2017-08-06T03:11:39.472Z,0
2017-08-06T03:12:39.724Z,0
2017-08-06T03:13:39.581Z,0
2017-08-06T03:14:39.578Z,0
2017-08-06T03:15:39.580Z,0
2017-08-06T03:16:39.575Z,0
2017-08-06T03:17:39.262Z,0
2017-08-06T03:18:39.573Z,0
2017-08-06T03:19:39.674Z,0
2017-08-06T03:20:39.567Z,0
2017-08-06T03:21:39.462Z,0
2017-08-06T03:22:39.715Z,0
2017-08-06T03:23:39.573Z,0
2017-08-06T03:24:39.566Z,0
2017-08-06T03:25:38.978Z,0
2017-08-06T03:26:39.258Z,0
2017-08-06T03:27:39.406Z,0
2017-08-06T03:28:39.262Z,0
2017-08-06T03:29:39.553Z,0
2017-08-06T03:30:39.560Z,0
2017-08-06T03:31:39.244Z,0
2017-08-06T03:32:39.702Z,0
2017-08-06T03:33:39.544Z,0
2017-08-06T03:34:39.548Z,0
2017-08-06T03:35:39.545Z,0
2017-08-06T03:36:39.555Z,0
2017-08-06T03:37:39.694Z,0
2017-08-06T03:38:39.555Z,0
2017-08-06T03:39:39.328Z,0
2017-08-06T03:40:39.230Z,0
2017-08-06T03:41:39.228Z,0
2017-08-06T03:42:39.532Z,0
2017-08-06T03:43:39.228Z,0
2017-08-06T03:44:39.322Z,0
2017-08-06T03:45:39.427Z,0
2017-08-06T03:46:39.547Z,0
2017-08-06T03:47:39.678Z,0
2017-08-06T03:48:39.214Z,0
2017-08-06T03:49:39.383Z,0
2017-08-06T03:50:39.207Z,0
2017-08-06T03:51:39.214Z,0
2017-08-06T03:52:39.615Z,0
2017-08-06T03:53:39.312Z,0
2017-08-06T03:54:39.662Z,0
2017-08-06T03:55:39.301Z,0
2017-08-06T03:56:39.211Z,0
2017-08-06T03:57:39.205Z,0
2017-08-06T03:58:39.506Z,0
2017-08-06T03:59:39.505Z,0
2017-08-06T04:00:39.604Z,0
2017-08-06T04:01:38.886Z,0
2017-08-06T04:02:39.598Z,0
2017-08-06T04:03:39.495Z,0
2017-08-06T04:04:39.599Z,0
2017-08-06T04:05:39.590Z,0
2017-08-06T04:06:39.189Z,0
2017-08-06T04:07:39.182Z,0
2017-08-06T04:08:39.488Z,0
2017-08-06T04:09:39.598Z,0
2017-08-06T04:10:39.497Z,0
2017-08-06T04:11:39.490Z,0
2017-08-06T04:12:39.586Z,0
2017-08-06T04:13:39.181Z,0
2017-08-06T04:14:39.628Z,0
2017-08-06T04:15:39.323Z,0
2017-08-06T04:16:39.470Z,0
2017-08-06T04:17:39.266Z,0
2017-08-06T04:18:39.166Z,0
2017-08-06T04:19:39.618Z,0
2017-08-06T04:20:39.568Z,0
2017-08-06T04:21:39.568Z,0
2017-08-06T04:22:39.466Z,0
2017-08-06T04:23:39.603Z,0
2017-08-06T04:24:39.653Z,0
2017-08-06T04:25:39.154Z,0
2017-08-06T04:26:39.557Z,0
2017-08-06T04:27:39.451Z,0
2017-08-06T04:28:39.146Z,0
2017-08-06T04:29:39.617Z,0
2017-08-06T04:30:39.555Z,0
2017-08-06T04:31:39.296Z,0
2017-08-06T04:32:39.283Z,0
2017-08-06T04:33:39.444Z,0
2017-08-06T04:34:38.628Z,0
2017-08-06T04:35:39.142Z,0
2017-08-06T04:36:39.231Z,0
2017-08-06T04:37:39.441Z,5
2017-08-06T04:38:39.135Z,0
2017-08-06T04:39:38.932Z,0
2017-08-06T04:40:39.120Z,5
2017-08-06T04:41:39.438Z,5
2017-08-06T04:42:38.627Z,5
2017-08-06T04:43:39.428Z,5
2017-08-06T04:44:39.454Z,5
2017-08-06T04:45:39.427Z,5
2017-08-06T04:46:39.584Z,5
2017-08-06T04:47:39.523Z,5
2017-08-06T04:48:39.142Z,5
2017-08-06T04:49:39.522Z,5
2017-08-06T04:50:39.562Z,5
2017-08-06T04:51:39.429Z,5
2017-08-06T04:52:39.104Z,0
2017-08-06T04:53:39.503Z,0
2017-08-06T04:54:39.561Z,0
2017-08-06T04:55:39.503Z,0
2017-08-06T04:56:39.102Z,5
2017-08-06T04:57:39.393Z,5
2017-08-06T04:58:39.398Z,5
2017-08-06T04:59:39.496Z,5
2017-08-06T05:00:39.243Z,5
2017-08-06T05:01:39.398Z,5
2017-08-06T05:02:39.692Z,10
2017-08-06T05:03:39.179Z,10
2017-08-06T05:04:38.478Z,10
2017-08-06T05:05:39.397Z,10
2017-08-06T05:06:39.392Z,10
2017-08-06T05:07:39.384Z,10
2017-08-06T05:08:39.384Z,10
2017-08-06T05:09:39.396Z,10
2017-08-06T05:10:39.070Z,5
2017-08-06T05:11:38.864Z,5
2017-08-06T05:12:39.729Z,5
2017-08-06T05:13:39.370Z,5
2017-08-06T05:14:39.637Z,5
2017-08-06T05:15:39.067Z,5
2017-08-06T05:16:39.057Z,5
2017-08-06T05:17:39.376Z,5
2017-08-06T05:18:39.055Z,5
2017-08-06T05:19:39.209Z,10
2017-08-06T05:20:38.846Z,10
2017-08-06T05:21:39.357Z,15
2017-08-06T05:22:39.362Z,15
2017-08-06T05:23:39.356Z,15
2017-08-06T05:24:39.508Z,15
2017-08-06T05:25:39.361Z,15
2017-08-06T05:26:39.453Z,15
2017-08-06T05:27:38.754Z,10
2017-08-06T05:28:39.347Z,10
2017-08-06T05:29:39.443Z,10
2017-08-06T05:30:39.337Z,10
2017-08-06T05:31:39.457Z,10
2017-08-06T05:32:39.036Z,10
2017-08-06T05:33:39.344Z,15
2017-08-06T05:34:39.453Z,15
2017-08-06T05:35:39.335Z,20
2017-08-06T05:36:39.051Z,20
2017-08-06T05:37:39.430Z,30
2017-08-06T05:38:39.342Z,35
2017-08-06T05:39:39.443Z,40
2017-08-06T05:40:39.429Z,45
2017-08-06T05:41:39.019Z,40
2017-08-06T05:42:39.324Z,40
2017-08-06T05:43:39.424Z,40
2017-08-06T05:44:39.427Z,40
2017-08-06T05:45:39.322Z,35
2017-08-06T05:46:39.105Z,30
2017-08-06T05:47:39.007Z,25
2017-08-06T05:48:39.320Z,20
2017-08-06T05:49:39.316Z,20
2017-08-06T05:50:39.312Z,15
2017-08-06T05:51:39.009Z,15
2017-08-06T05:52:39.309Z,15
2017-08-06T05:53:39.418Z,15
2017-08-06T05:54:39.457Z,15
2017-08-06T05:55:38.999Z,15
2017-08-06T05:56:39.307Z,15
2017-08-06T05:57:38.691Z,15
2017-08-06T05:58:39.407Z,15
2017-08-06T05:59:39.296Z,15
2017-08-06T06:00:39.500Z,15
2017-08-06T06:01:38.992Z,15
2017-08-06T06:02:39.295Z,20
2017-08-06T06:03:38.991Z,20
2017-08-06T06:04:39.291Z,25
2017-08-06T06:05:39.295Z,25
2017-08-06T06:06:38.787Z,25
2017-08-06T06:07:38.787Z,20
2017-08-06T06:08:39.394Z,15
2017-08-06T06:09:39.281Z,20
2017-08-06T06:10:39.383Z,20
2017-08-06T06:11:39.125Z,25
2017-08-06T06:12:39.303Z,30
2017-08-06T06:13:39.277Z,35
2017-08-06T06:14:38.969Z,45
2017-08-06T06:15:39.266Z,50
2017-08-06T06:16:39.631Z,50
2017-08-06T06:17:39.277Z,50
2017-08-06T06:18:39.269Z,40
2017-08-06T06:19:38.958Z,35
2017-08-06T06:20:39.370Z,45
2017-08-06T06:21:39.269Z,50
2017-08-06T06:22:39.264Z,50
2017-08-06T06:23:39.260Z,55
2017-08-06T06:24:39.266Z,65
2017-08-06T06:25:39.058Z,80
2017-08-06T06:26:39.048Z,90
2017-08-06T06:27:39.056Z,70
2017-08-06T06:28:39.257Z,65
2017-08-06T06:29:39.253Z,60
2017-08-06T06:30:39.047Z,55
2017-08-06T06:31:39.397Z,50
2017-08-06T06:32:39.253Z,40
2017-08-06T06:33:38.943Z,50
2017-08-06T06:34:39.246Z,35
2017-08-06T06:35:39.097Z,25
2017-08-06T06:36:39.236Z,20
2017-08-06T06:37:39.397Z,20
2017-08-06T06:38:39.333Z,25
2017-08-06T06:39:39.246Z,20
2017-08-06T06:40:39.340Z,20
2017-08-06T06:41:39.034Z,25
2017-08-06T06:42:39.235Z,25
2017-08-06T06:43:39.235Z,25
2017-08-06T06:44:38.926Z,25
2017-08-06T06:45:39.119Z,25
2017-08-06T06:46:38.921Z,25
2017-08-06T06:47:38.940Z,25
2017-08-06T06:48:39.341Z,25
2017-08-06T06:49:39.231Z,30
2017-08-06T06:50:39.321Z,35
2017-08-06T06:51:38.923Z,40
2017-08-06T06:52:38.913Z,45
2017-08-06T06:53:39.312Z,45
2017-08-06T06:54:38.905Z,45
2017-08-06T06:55:39.465Z,45
2017-08-06T06:56:38.910Z,45
2017-08-06T06:57:39.213Z,40
2017-08-06T06:58:38.901Z,35
2017-08-06T06:59:38.906Z,30
2017-08-06T07:00:39.362Z,25
2017-08-06T07:01:39.207Z,20
2017-08-06T07:02:38.895Z,20
2017-08-06T07:03:39.044Z,20
2017-08-06T07:04:39.217Z,20
2017-08-06T07:05:38.895Z,20
2017-08-06T07:06:39.296Z,25
2017-08-06T07:07:38.999Z,25
2017-08-06T07:08:39.203Z,20
2017-08-06T07:09:39.198Z,20
2017-08-06T07:10:39.197Z,20
2017-08-06T07:11:39.191Z,20
2017-08-06T07:12:39.190Z,20
2017-08-06T07:13:39.448Z,15
2017-08-06T07:14:39.193Z,15
2017-08-06T07:15:39.189Z,20
2017-08-06T07:16:39.183Z,15
2017-08-06T07:17:38.980Z,15
2017-08-06T07:18:39.087Z,15
2017-08-06T07:19:38.872Z,15
2017-08-06T07:20:39.175Z,15
2017-08-06T07:21:38.870Z,10
2017-08-06T07:22:38.974Z,10
2017-08-06T07:23:39.572Z,10
2017-08-06T07:24:38.962Z,15
2017-08-06T07:25:39.171Z,15
2017-08-06T07:26:38.859Z,15
2017-08-06T07:27:39.169Z,20
2017-08-06T07:28:39.055Z,20
2017-08-06T07:29:38.855Z,20
2017-08-06T07:30:39.262Z,25
2017-08-06T07:31:39.159Z,25
2017-08-06T07:32:38.542Z,30
2017-08-06T07:33:39.161Z,35
2017-08-06T07:34:39.160Z,45
2017-08-06T07:35:39.160Z,50
2017-08-06T07:36:39.155Z,55
2017-08-06T07:37:39.143Z,60
2017-08-06T07:38:39.299Z,70
2017-08-06T07:39:38.534Z,85
2017-08-06T07:40:39.242Z,95
2017-08-06T07:41:39.082Z,110
2017-08-06T07:42:39.243Z,115
2017-08-06T07:43:38.833Z,120
2017-08-06T07:44:38.987Z,130
2017-08-06T07:45:38.838Z,125
2017-08-06T07:46:39.134Z,115
2017-08-06T07:47:39.421Z,95
2017-08-06T07:48:39.147Z,85
2017-08-06T07:49:39.285Z,85
2017-08-06T07:50:38.824Z,80
2017-08-06T07:51:39.280Z,80
2017-08-06T07:52:38.611Z,80
2017-08-06T07:53:39.225Z,75
2017-08-06T07:54:38.508Z,70
2017-08-06T07:55:38.821Z,60
2017-08-06T07:56:39.224Z,50
2017-08-06T07:57:39.177Z,55
2017-08-06T07:58:39.222Z,60
2017-08-06T07:59:39.222Z,70
2017-08-06T08:00:39.266Z,80
2017-08-06T08:01:39.117Z,95
2017-08-06T08:02:39.213Z,125
2017-08-06T08:03:39.117Z,115
2017-08-06T08:04:39.254Z,130
2017-08-06T08:05:39.108Z,130
2017-08-06T08:06:39.209Z,130
2017-08-06T08:07:38.804Z,135
2017-08-06T08:08:39.109Z,135
2017-08-06T08:09:39.101Z,140
2017-08-06T08:10:38.805Z,140
2017-08-06T08:11:39.108Z,140
2017-08-06T08:12:39.107Z,140
2017-08-06T08:13:38.798Z,155
2017-08-06T08:14:39.097Z,155
2017-08-06T08:15:39.093Z,160
2017-08-06T08:16:39.293Z,155
2017-08-06T08:17:39.094Z,145
2017-08-06T08:18:39.241Z,135
2017-08-06T08:19:39.203Z,130
2017-08-06T08:20:39.248Z,140
2017-08-06T08:21:39.094Z,135
2017-08-06T08:22:38.782Z,145
2017-08-06T08:23:39.092Z,150
2017-08-06T08:24:39.201Z,145
2017-08-06T08:25:39.190Z,145
2017-08-06T08:26:39.198Z,140
2017-08-06T08:27:39.345Z,130
2017-08-06T08:28:39.091Z,125
2017-08-06T08:29:38.783Z,120
2017-08-06T08:30:38.938Z,120
2017-08-06T08:31:39.085Z,115
2017-08-06T08:32:38.876Z,115
2017-08-06T08:33:39.345Z,125
2017-08-06T08:34:39.089Z,120
2017-08-06T08:35:39.177Z,105
2017-08-06T08:36:39.083Z,100
2017-08-06T08:37:39.082Z,105
2017-08-06T08:38:39.228Z,110
2017-08-06T08:39:39.179Z,120
2017-08-06T08:40:38.884Z,130
2017-08-06T08:41:39.076Z,140
2017-08-06T08:42:39.072Z,145
2017-08-06T08:43:39.077Z,150
2017-08-06T08:44:39.228Z,155
2017-08-06T08:45:39.268Z,130
2017-08-06T08:46:39.189Z,110
2017-08-06T08:47:39.076Z,95
2017-08-06T08:48:39.073Z,85
2017-08-06T08:49:38.768Z,80
2017-08-06T08:50:39.063Z,85
2017-08-06T08:51:39.469Z,85
2017-08-06T08:52:39.065Z,85
2017-08-06T08:53:39.069Z,80
2017-08-06T08:54:38.757Z,85
2017-08-06T08:55:39.068Z,90
2017-08-06T08:56:39.073Z,90
2017-08-06T08:57:39.073Z,85
2017-08-06T08:58:39.163Z,85
2017-08-06T08:59:39.060Z,75
2017-08-06T09:00:39.167Z,75
2017-08-06T09:01:39.260Z,85
2017-08-06T09:02:39.061Z,100
2017-08-06T09:03:39.173Z,110
2017-08-06T09:04:39.061Z,115
2017-08-06T09:05:39.059Z,115
2017-08-06T09:06:39.165Z,105
2017-08-06T09:07:38.752Z,100
2017-08-06T09:08:39.162Z,95
2017-08-06T09:09:39.059Z,95
2017-08-06T09:10:39.065Z,100
2017-08-06T09:11:38.446Z,90
2017-08-06T09:12:38.844Z,80
2017-08-06T09:13:38.548Z,80
2017-08-06T09:14:38.845Z,80
2017-08-06T09:15:39.055Z,80
2017-08-06T09:16:38.775Z,75
2017-08-06T09:17:39.047Z,70
2017-08-06T09:18:39.148Z,75
2017-08-06T09:19:39.052Z,75
2017-08-06T09:20:38.740Z,80
2017-08-06T09:21:38.841Z,80
2017-08-06T09:22:39.041Z,85
2017-08-06T09:23:39.195Z,85
2017-08-06T09:24:38.733Z,80
2017-08-06T09:25:39.050Z,70
2017-08-06T09:26:38.833Z,60
2017-08-06T09:27:39.039Z,55
2017-08-06T09:28:39.002Z,45
2017-08-06T09:29:39.036Z,40
2017-08-06T09:30:38.523Z,35
2017-08-06T09:31:38.424Z,35
2017-08-06T09:32:39.070Z,30
2017-08-06T09:33:39.233Z,30
2017-08-06T09:34:39.141Z,30
2017-08-06T09:35:38.724Z,30
2017-08-06T09:36:38.734Z,30
2017-08-06T09:37:39.029Z,25
2017-08-06T09:38:39.026Z,25
2017-08-06T09:39:39.172Z,30
2017-08-06T09:40:39.183Z,30
2017-08-06T09:41:38.716Z,35
2017-08-06T09:42:39.018Z,40
2017-08-06T09:43:39.017Z,40
2017-08-06T09:44:39.016Z,40
2017-08-06T09:45:39.021Z,45
2017-08-06T09:46:38.706Z,45
2017-08-06T09:47:39.117Z,45
2017-08-06T09:48:38.857Z,45
2017-08-06T09:49:39.009Z,45
2017-08-06T09:50:38.809Z,45
2017-08-06T09:51:39.151Z,45
2017-08-06T09:52:39.005Z,45
2017-08-06T09:53:39.003Z,45
2017-08-06T09:54:39.012Z,50
2017-08-06T09:55:38.398Z,55
2017-08-06T09:56:38.999Z,60
2017-08-06T09:57:39.000Z,60
2017-08-06T09:58:39.098Z,65
2017-08-06T09:59:38.999Z,65
2017-08-06T10:00:38.992Z,65
2017-08-06T10:01:39.091Z,65
2017-08-06T10:02:38.991Z,60
2017-08-06T10:03:38.999Z,55
2017-08-06T10:04:39.144Z,60
2017-08-06T10:05:38.996Z,60
2017-08-06T10:06:38.997Z,60
2017-08-06T10:07:38.992Z,65
2017-08-06T10:08:38.678Z,65
2017-08-06T10:09:38.986Z,65
2017-08-06T10:10:39.230Z,65
2017-08-06T10:11:38.993Z,70
2017-08-06T10:12:39.076Z,80
2017-08-06T10:13:38.682Z,85
2017-08-06T10:14:38.361Z,85
2017-08-06T10:15:38.979Z,85
2017-08-06T10:16:38.978Z,85
2017-08-06T10:17:38.972Z,80
2017-08-06T10:18:39.069Z,75
2017-08-06T10:19:38.668Z,75
2017-08-06T10:20:38.660Z,75
2017-08-06T10:21:38.660Z,80
2017-08-06T10:22:39.067Z,90
2017-08-06T10:23:38.812Z,105
2017-08-06T10:24:38.969Z,105
2017-08-06T10:25:38.969Z,105
2017-08-06T10:26:38.352Z,115
2017-08-06T10:27:38.961Z,120
2017-08-06T10:28:39.219Z,130
2017-08-06T10:29:38.963Z,135
2017-08-06T10:30:38.964Z,135
2017-08-06T10:31:38.953Z,135
2017-08-06T10:32:38.954Z,135
2017-08-06T10:33:38.642Z,140
2017-08-06T10:34:39.101Z,135
2017-08-06T10:35:38.957Z,130
2017-08-06T10:36:38.645Z,120
2017-08-06T10:37:38.950Z,110
2017-08-06T10:38:38.337Z,105
2017-08-06T10:39:39.056Z,110
2017-08-06T10:40:39.048Z,115
2017-08-06T10:41:38.644Z,115
2017-08-06T10:42:38.948Z,115
2017-08-06T10:43:38.946Z,115
2017-08-06T10:44:38.942Z,115
2017-08-06T10:45:38.938Z,110
2017-08-06T10:46:38.785Z,105
2017-08-06T10:47:38.735Z,110
2017-08-06T10:48:38.644Z,115
2017-08-06T10:49:38.928Z,120
2017-08-06T10:50:39.086Z,130
2017-08-06T10:51:38.414Z,125
2017-08-06T10:52:39.034Z,125
2017-08-06T10:53:38.622Z,130
2017-08-06T10:54:38.928Z,120
2017-08-06T10:55:38.633Z,120
2017-08-06T10:56:39.030Z,130
2017-08-06T10:57:39.183Z,115
2017-08-06T10:58:38.012Z,120
2017-08-06T10:59:38.926Z,120
2017-08-06T11:00:38.931Z,115
2017-08-06T11:01:38.614Z,135
2017-08-06T11:02:38.926Z,125
2017-08-06T11:03:39.025Z,130
2017-08-06T11:04:38.935Z,120
2017-08-06T11:05:39.021Z,110
2017-08-06T11:06:38.411Z,100
2017-08-06T11:07:39.116Z,105
2017-08-06T11:08:39.016Z,110
2017-08-06T11:09:38.929Z,110
2017-08-06T11:10:38.723Z,120
2017-08-06T11:11:38.707Z,125
2017-08-06T11:12:38.606Z,120
2017-08-06T11:13:38.636Z,125
2017-08-06T11:14:38.911Z,125
2017-08-06T11:15:39.061Z,130
2017-08-06T11:16:38.914Z,130
2017-08-06T11:17:38.756Z,130
2017-08-06T11:18:38.396Z,130
2017-08-06T11:19:38.915Z,135
2017-08-06T11:20:38.705Z,140
2017-08-06T11:21:38.601Z,140
2017-08-06T11:22:38.913Z,140
2017-08-06T11:23:38.998Z,140
2017-08-06T11:24:38.289Z,140
2017-08-06T11:25:38.604Z,145
2017-08-06T11:26:39.007Z,145
2017-08-06T11:27:39.109Z,140
2017-08-06T11:28:39.176Z,140
2017-08-06T11:29:38.292Z,140
2017-08-06T11:30:38.596Z,145
2017-08-06T11:31:38.896Z,145
2017-08-06T11:32:38.695Z,145
2017-08-06T11:33:39.010Z,140
2017-08-06T11:34:39.046Z,135
2017-08-06T11:35:38.695Z,130
2017-08-06T11:36:38.893Z,130
2017-08-06T11:37:39.040Z,135
2017-08-06T11:38:38.789Z,135
2017-08-06T11:39:38.692Z,130
2017-08-06T11:40:38.898Z,125
2017-08-06T11:41:38.596Z,120
2017-08-06T11:42:38.891Z,125
2017-08-06T11:43:38.585Z,125
2017-08-06T11:44:38.684Z,135
2017-08-06T11:45:38.906Z,140
2017-08-06T11:46:38.901Z,140
2017-08-06T11:47:38.985Z,140
2017-08-06T11:48:38.884Z,135
2017-08-06T11:49:38.886Z,130
2017-08-06T11:50:38.878Z,135
2017-08-06T11:51:38.373Z,140
2017-08-06T11:52:38.889Z,140
2017-08-06T11:53:38.678Z,140
2017-08-06T11:54:38.681Z,130
2017-08-06T11:55:38.476Z,120
2017-08-06T11:56:38.983Z,110
2017-08-06T11:57:38.267Z,115
2017-08-06T11:58:38.579Z,115
2017-08-06T11:59:38.728Z,115
2017-08-06T12:00:38.571Z,105
2017-08-06T12:01:38.881Z,100
2017-08-06T12:02:38.718Z,95
2017-08-06T12:03:38.990Z,90
2017-08-06T12:04:38.878Z,90
2017-08-06T12:05:38.878Z,85
2017-08-06T12:06:38.876Z,85
2017-08-06T12:07:38.874Z,85
2017-08-06T12:08:38.868Z,85
2017-08-06T12:09:38.875Z,90
2017-08-06T12:10:38.260Z,95
2017-08-06T12:11:38.883Z,95
2017-08-06T12:12:38.872Z,95
2017-08-06T12:13:38.872Z,95
2017-08-06T12:14:38.707Z,95
2017-08-06T12:15:38.874Z,95
2017-08-06T12:16:39.015Z,90
2017-08-06T12:17:38.868Z,85
2017-08-06T12:18:38.862Z,85
2017-08-06T12:19:38.349Z,85
2017-08-06T12:20:38.248Z,85
2017-08-06T12:21:38.244Z,85
2017-08-06T12:22:38.962Z,85
2017-08-06T12:23:38.867Z,90
2017-08-06T12:24:38.650Z,100
2017-08-06T12:25:38.857Z,100
2017-08-06T12:26:39.005Z,100
2017-08-06T12:27:38.851Z,95
2017-08-06T12:28:38.964Z,85
2017-08-06T12:29:38.956Z,80
2017-08-06T12:30:38.857Z,80
2017-08-06T12:31:38.643Z,80
2017-08-06T12:32:38.853Z,80
2017-08-06T12:33:39.003Z,85
2017-08-06T12:34:37.929Z,85
2017-08-06T12:35:38.243Z,85
2017-08-06T12:36:38.236Z,80
2017-08-06T12:37:38.534Z,80
2017-08-06T12:38:38.841Z,85
2017-08-06T12:39:38.937Z,85
2017-08-06T12:40:39.098Z,85
2017-08-06T12:41:38.710Z,85
2017-08-06T12:42:38.842Z,85
2017-08-06T12:43:38.635Z,90
2017-08-06T12:44:38.996Z,95
2017-08-06T12:45:38.017Z,110
2017-08-06T12:46:37.916Z,110
2017-08-06T12:47:38.536Z,115
2017-08-06T12:48:38.930Z,110
2017-08-06T12:49:38.329Z,105
2017-08-06T12:50:38.933Z,100
2017-08-06T12:51:38.630Z,90
2017-08-06T12:52:37.909Z,85
2017-08-06T12:53:38.522Z,80
2017-08-06T12:54:37.907Z,80
2017-08-06T12:55:38.420Z,85
2017-08-06T12:56:39.133Z,90
2017-08-06T12:57:38.216Z,85
2017-08-06T12:58:38.826Z,80
2017-08-06T12:59:38.825Z,70
2017-08-06T13:00:38.826Z,70
2017-08-06T13:01:38.613Z,75
2017-08-06T13:02:38.620Z,85
2017-08-06T13:03:38.505Z,85
2017-08-06T13:04:38.514Z,70
2017-08-06T13:05:38.816Z,65
2017-08-06T13:06:38.623Z,75
2017-08-06T13:07:38.511Z,70
2017-08-06T13:08:38.513Z,70
2017-08-06T13:09:38.611Z,80
2017-08-06T13:10:38.804Z,85
2017-08-06T13:11:38.506Z,90
2017-08-06T13:12:38.959Z,75
2017-08-06T13:13:38.505Z,75
2017-08-06T13:14:38.653Z,75
2017-08-06T13:15:38.500Z,65
2017-08-06T13:16:38.809Z,60
2017-08-06T13:17:38.963Z,50
2017-08-06T13:18:38.907Z,50
2017-08-06T13:19:38.807Z,50
2017-08-06T13:20:38.804Z,45
2017-08-06T13:21:38.190Z,45
2017-08-06T13:22:38.600Z,50
2017-08-06T13:23:38.925Z,50
2017-08-06T13:24:38.496Z,55
2017-08-06T13:25:38.798Z,50
2017-08-06T13:26:38.494Z,50
2017-08-06T13:27:38.953Z,50
2017-08-06T13:28:38.487Z,50
2017-08-06T13:29:38.591Z,50
2017-08-06T13:30:38.489Z,45
2017-08-06T13:31:38.481Z,40
2017-08-06T13:32:38.790Z,40
2017-08-06T13:33:38.791Z,40
2017-08-06T13:34:38.886Z,40
2017-08-06T13:35:38.483Z,40
2017-08-06T13:36:38.779Z,35
2017-08-06T13:37:38.482Z,30
2017-08-06T13:38:38.781Z,35
2017-08-06T13:39:38.786Z,40
2017-08-06T13:40:38.168Z,35
2017-08-06T13:41:38.886Z,30
2017-08-06T13:42:38.173Z,35
2017-08-06T13:43:38.885Z,35
2017-08-06T13:44:38.475Z,40
2017-08-06T13:45:38.569Z,40
2017-08-06T13:46:38.875Z,40
2017-08-06T13:47:38.471Z,45
2017-08-06T13:48:38.765Z,45
2017-08-06T13:49:38.925Z,50
2017-08-06T13:50:38.776Z,50
2017-08-06T13:51:38.558Z,50
2017-08-06T13:52:37.847Z,55
2017-08-06T13:53:38.606Z,55
2017-08-06T13:54:38.553Z,60
2017-08-06T13:55:38.450Z,65
2017-08-06T13:56:38.868Z,70
2017-08-06T13:57:38.553Z,70
2017-08-06T13:58:38.458Z,70
2017-08-06T13:59:38.906Z,65
2017-08-06T14:00:38.761Z,60
2017-08-06T14:01:38.549Z,55
2017-08-06T14:02:38.760Z,50
2017-08-06T14:03:38.767Z,50
2017-08-06T14:04:38.949Z,50
2017-08-06T14:05:38.899Z,50
2017-08-06T14:06:38.863Z,50
2017-08-06T14:07:38.449Z,50
2017-08-06T14:08:38.747Z,45
2017-08-06T14:09:38.549Z,40
2017-08-06T14:10:38.851Z,40
2017-08-06T14:11:38.546Z,35
2017-08-06T14:12:38.440Z,40
2017-08-06T14:13:38.737Z,40
2017-08-06T14:14:38.452Z,45
2017-08-06T14:15:38.536Z,50
2017-08-06T14:16:38.745Z,50
2017-08-06T14:17:38.428Z,60
2017-08-06T14:18:38.531Z,65
2017-08-06T14:19:38.439Z,70
2017-08-06T14:20:38.548Z,75